N415DB PAAK-PADU
Flight info
| Callsign | N415DB |
|---|---|
| Flight time | 2h 19m |
| Altitude | 19000 |
| Route | HIMKI1 HIMKI T227 ALEUT |
| Aircraft | C208/L-SBDFGRY/LU2 |
Departure
| Time | 2026-05-09 03:59 |
|---|---|
| Airport | Atka Airport (PAAK) |
Arrival
| Time | 2026-05-09 06:19 |
|---|---|
| Airport | Tom Madsen (Dutch Harbor) Airport (PADU) |
| Time | Latitude | Longitude | Altitude | Speed | Heading |
|---|---|---|---|---|---|
| 2026-05-09 03:53 | 52.21613 | -174.20696 | 35 ft | 0 kts | 344° |
| 2026-05-09 03:56 | 52.21619 | -174.20699 | 35 ft | 4 kts | 349° |
| 2026-05-09 03:56 | 52.21662 | -174.20667 | 36 ft | 10 kts | 47° |
| 2026-05-09 03:56 | 52.21691 | -174.20531 | 37 ft | 15 kts | 77° |
| 2026-05-09 03:56 | 52.21649 | -174.20448 | 37 ft | 13 kts | 164° |
| 2026-05-09 03:57 | 52.21545 | -174.20399 | 35 ft | 14 kts | 165° |
| 2026-05-09 03:57 | 52.21461 | -174.20364 | 33 ft | 12 kts | 166° |
| 2026-05-09 03:57 | 52.21457 | -174.20349 | 33 ft | 6 kts | 339° |
| 2026-05-09 03:57 | 52.21463 | -174.20352 | 33 ft | 0 kts | 343° |
| 2026-05-09 03:58 | 52.21544 | -174.20389 | 35 ft | 35 kts | 345° |
| 2026-05-09 03:58 | 52.21924 | -174.20562 | 40 ft | 77 kts | 345° |
| 2026-05-09 03:58 | 52.22515 | -174.20786 | 126 ft | 90 kts | 6° |
| 2026-05-09 03:58 | 52.22891 | -174.20143 | 259 ft | 90 kts | 94° |
| 2026-05-09 03:59 | 52.22540 | -174.19279 | 391 ft | 101 kts | 133° |
| 2026-05-09 03:59 | 52.22005 | -174.18348 | 474 ft | 116 kts | 130° |
| 2026-05-09 03:59 | 52.21370 | -174.17507 | 691 ft | 119 kts | 147° |
| 2026-05-09 03:59 | 52.20834 | -174.16562 | 1025 ft | 114 kts | 122° |
| 2026-05-09 04:00 | 52.20360 | -174.15525 | 1308 ft | 114 kts | 117° |
| 2026-05-09 04:00 | 52.20017 | -174.14350 | 1581 ft | 113 kts | 115° |
| 2026-05-09 04:00 | 52.19676 | -174.13217 | 1843 ft | 113 kts | 115° |
| 2026-05-09 04:00 | 52.19371 | -174.12041 | 2107 ft | 113 kts | 108° |
| 2026-05-09 04:01 | 52.19210 | -174.10797 | 2373 ft | 112 kts | 99° |
| 2026-05-09 04:01 | 52.19090 | -174.09551 | 2636 ft | 111 kts | 98° |
| 2026-05-09 04:01 | 52.18994 | -174.08312 | 2903 ft | 110 kts | 98° |
| 2026-05-09 04:01 | 52.18908 | -174.07082 | 3146 ft | 109 kts | 99° |
| 2026-05-09 04:02 | 52.18827 | -174.05852 | 3402 ft | 108 kts | 98° |
| 2026-05-09 04:02 | 52.18748 | -174.04637 | 3659 ft | 107 kts | 98° |
| 2026-05-09 04:02 | 52.18671 | -174.03436 | 3920 ft | 106 kts | 98° |
| 2026-05-09 04:02 | 52.18596 | -174.02258 | 4151 ft | 107 kts | 98° |
| 2026-05-09 04:03 | 52.18519 | -174.01041 | 4364 ft | 109 kts | 98° |
| 2026-05-09 04:03 | 52.18440 | -173.99804 | 4580 ft | 110 kts | 98° |
| 2026-05-09 04:03 | 52.18360 | -173.98553 | 4794 ft | 112 kts | 98° |
| 2026-05-09 04:03 | 52.18279 | -173.97278 | 5002 ft | 114 kts | 98° |
| 2026-05-09 04:04 | 52.18195 | -173.95971 | 5214 ft | 117 kts | 98° |
| 2026-05-09 04:04 | 52.18111 | -173.94642 | 5427 ft | 119 kts | 98° |
| 2026-05-09 04:04 | 52.18024 | -173.93296 | 5642 ft | 120 kts | 98° |
| 2026-05-09 04:04 | 52.17939 | -173.91948 | 5853 ft | 122 kts | 98° |
| 2026-05-09 04:05 | 52.18041 | -173.90584 | 6066 ft | 127 kts | 66° |
| 2026-05-09 04:05 | 52.18677 | -173.89563 | 6280 ft | 135 kts | 31° |
| 2026-05-09 04:05 | 52.19615 | -173.89280 | 6489 ft | 140 kts | 11° |
| 2026-05-09 04:05 | 52.20581 | -173.89099 | 6692 ft | 140 kts | 13° |
| 2026-05-09 04:06 | 52.21548 | -173.88913 | 6896 ft | 141 kts | 12° |
| 2026-05-09 04:06 | 52.22524 | -173.88728 | 7099 ft | 142 kts | 12° |
| 2026-05-09 04:06 | 52.23507 | -173.88544 | 7302 ft | 143 kts | 12° |
| 2026-05-09 04:06 | 52.24494 | -173.88360 | 7508 ft | 143 kts | 12° |
| 2026-05-09 04:07 | 52.25477 | -173.88174 | 7713 ft | 142 kts | 12° |
| 2026-05-09 04:07 | 52.26452 | -173.87990 | 7918 ft | 140 kts | 12° |
| 2026-05-09 04:07 | 52.27419 | -173.87808 | 8118 ft | 140 kts | 12° |
| 2026-05-09 04:07 | 52.28383 | -173.87622 | 8333 ft | 142 kts | 12° |
| 2026-05-09 04:08 | 52.29368 | -173.87437 | 8542 ft | 142 kts | 12° |
| 2026-05-09 04:08 | 52.30352 | -173.87251 | 8759 ft | 142 kts | 12° |
| 2026-05-09 04:08 | 52.31336 | -173.87066 | 8972 ft | 142 kts | 12° |
| 2026-05-09 04:08 | 52.32316 | -173.86880 | 9187 ft | 142 kts | 12° |
| 2026-05-09 04:09 | 52.33296 | -173.86695 | 9403 ft | 141 kts | 12° |
| 2026-05-09 04:09 | 52.34270 | -173.86512 | 9619 ft | 141 kts | 12° |
| 2026-05-09 04:09 | 52.35240 | -173.86327 | 9821 ft | 140 kts | 12° |
| 2026-05-09 04:09 | 52.36207 | -173.86145 | 10013 ft | 140 kts | 12° |
| 2026-05-09 04:10 | 52.37170 | -173.85962 | 10202 ft | 139 kts | 11° |
| 2026-05-09 04:10 | 52.38114 | -173.85784 | 10398 ft | 138 kts | 12° |
| 2026-05-09 04:10 | 52.39067 | -173.85603 | 10597 ft | 138 kts | 12° |
| 2026-05-09 04:10 | 52.40017 | -173.85422 | 10797 ft | 137 kts | 11° |
| 2026-05-09 04:11 | 52.40962 | -173.85242 | 10994 ft | 137 kts | 12° |
| 2026-05-09 04:11 | 52.41907 | -173.85063 | 11199 ft | 136 kts | 12° |
| 2026-05-09 04:11 | 52.42847 | -173.84884 | 11402 ft | 136 kts | 11° |
| 2026-05-09 04:11 | 52.43787 | -173.84706 | 11607 ft | 136 kts | 12° |
| 2026-05-09 04:12 | 52.44722 | -173.84528 | 11814 ft | 135 kts | 12° |
| 2026-05-09 04:12 | 52.45650 | -173.84352 | 12019 ft | 134 kts | 12° |
| 2026-05-09 04:12 | 52.46566 | -173.84177 | 12226 ft | 132 kts | 12° |
| 2026-05-09 04:12 | 52.47480 | -173.84003 | 12414 ft | 132 kts | 12° |
| 2026-05-09 04:13 | 52.48396 | -173.83829 | 12598 ft | 133 kts | 12° |
| 2026-05-09 04:13 | 52.49316 | -173.83653 | 12782 ft | 133 kts | 12° |
| 2026-05-09 04:13 | 52.50237 | -173.83478 | 12970 ft | 133 kts | 12° |
| 2026-05-09 04:13 | 52.51159 | -173.83302 | 13165 ft | 133 kts | 11° |
| 2026-05-09 04:14 | 52.52072 | -173.83128 | 13352 ft | 133 kts | 12° |
| 2026-05-09 04:14 | 52.52990 | -173.82952 | 13544 ft | 133 kts | 12° |
| 2026-05-09 04:14 | 52.53904 | -173.82776 | 13720 ft | 132 kts | 12° |
| 2026-05-09 04:14 | 52.54816 | -173.82601 | 13889 ft | 132 kts | 12° |
| 2026-05-09 04:15 | 52.55726 | -173.82428 | 14056 ft | 131 kts | 12° |
| 2026-05-09 04:15 | 52.56631 | -173.82256 | 14226 ft | 130 kts | 12° |
| 2026-05-09 04:15 | 52.57531 | -173.82082 | 14399 ft | 129 kts | 12° |
| 2026-05-09 04:15 | 52.58413 | -173.81914 | 14567 ft | 129 kts | 12° |
| 2026-05-09 04:16 | 52.59298 | -173.81745 | 14738 ft | 128 kts | 12° |
| 2026-05-09 04:16 | 52.60177 | -173.81577 | 14906 ft | 127 kts | 12° |
| 2026-05-09 04:16 | 52.61050 | -173.81412 | 15071 ft | 125 kts | 13° |
| 2026-05-09 04:16 | 52.61907 | -173.81247 | 15238 ft | 123 kts | 13° |
| 2026-05-09 04:17 | 52.62752 | -173.81086 | 15396 ft | 122 kts | 13° |
| 2026-05-09 04:17 | 52.63601 | -173.80920 | 15519 ft | 124 kts | 13° |
| 2026-05-09 04:17 | 52.64459 | -173.80754 | 15648 ft | 125 kts | 13° |
| 2026-05-09 04:17 | 52.65328 | -173.80588 | 15782 ft | 126 kts | 13° |
| 2026-05-09 04:18 | 52.66205 | -173.80419 | 15921 ft | 127 kts | 13° |
| 2026-05-09 04:18 | 52.67086 | -173.80249 | 16057 ft | 128 kts | 13° |
| 2026-05-09 04:18 | 52.67974 | -173.80079 | 16193 ft | 129 kts | 13° |
| 2026-05-09 04:18 | 52.68855 | -173.79909 | 16329 ft | 129 kts | 13° |
| 2026-05-09 04:19 | 52.69763 | -173.79736 | 16462 ft | 130 kts | 13° |
| 2026-05-09 04:19 | 52.70650 | -173.79566 | 16598 ft | 130 kts | 13° |
| 2026-05-09 04:19 | 52.71551 | -173.79393 | 16734 ft | 131 kts | 13° |
| 2026-05-09 04:19 | 52.72456 | -173.79218 | 16864 ft | 131 kts | 13° |
| 2026-05-09 04:20 | 52.73361 | -173.79044 | 17009 ft | 131 kts | 13° |
| 2026-05-09 04:20 | 52.74267 | -173.78869 | 17139 ft | 131 kts | 13° |
| 2026-05-09 04:20 | 52.75175 | -173.78695 | 17277 ft | 131 kts | 13° |
| 2026-05-09 04:20 | 52.76083 | -173.78519 | 17416 ft | 131 kts | 13° |
| 2026-05-09 04:21 | 52.76995 | -173.78343 | 17549 ft | 133 kts | 13° |
| 2026-05-09 04:21 | 52.77916 | -173.78166 | 17693 ft | 134 kts | 13° |
| 2026-05-09 04:21 | 52.79544 | -173.77083 | 17986 ft | 127 kts | 56° |
| 2026-05-09 04:22 | 52.79927 | -173.75800 | 18136 ft | 125 kts | 73° |
| 2026-05-09 04:22 | 52.80247 | -173.74463 | 18262 ft | 125 kts | 71° |
| 2026-05-09 04:22 | 52.80566 | -173.73134 | 18383 ft | 124 kts | 71° |
| 2026-05-09 04:22 | 52.80880 | -173.71813 | 18504 ft | 123 kts | 72° |
| 2026-05-09 04:23 | 52.81191 | -173.70501 | 18623 ft | 122 kts | 72° |
| 2026-05-09 04:23 | 52.81499 | -173.69198 | 18741 ft | 121 kts | 72° |
| 2026-05-09 04:23 | 52.81806 | -173.67894 | 18814 ft | 125 kts | 72° |
| 2026-05-09 04:23 | 52.82132 | -173.66518 | 18830 ft | 132 kts | 72° |
| 2026-05-09 04:24 | 52.82468 | -173.65103 | 18826 ft | 135 kts | 71° |
| 2026-05-09 04:24 | 52.82813 | -173.63644 | 18831 ft | 137 kts | 72° |
| 2026-05-09 04:24 | 52.83163 | -173.62159 | 18828 ft | 139 kts | 71° |
| 2026-05-09 04:24 | 52.83515 | -173.60661 | 18825 ft | 141 kts | 71° |
| 2026-05-09 04:25 | 52.83873 | -173.59146 | 18816 ft | 141 kts | 72° |
| 2026-05-09 04:25 | 52.84223 | -173.57652 | 18822 ft | 141 kts | 72° |
| 2026-05-09 04:25 | 52.84579 | -173.56136 | 18826 ft | 142 kts | 72° |
| 2026-05-09 04:25 | 52.84936 | -173.54615 | 18824 ft | 142 kts | 72° |
| 2026-05-09 04:26 | 52.85296 | -173.53086 | 18824 ft | 143 kts | 72° |
| 2026-05-09 04:26 | 52.85656 | -173.51552 | 18824 ft | 143 kts | 72° |
| 2026-05-09 04:26 | 52.86017 | -173.50015 | 18826 ft | 143 kts | 72° |
| 2026-05-09 04:26 | 52.86378 | -173.48473 | 18823 ft | 144 kts | 72° |
| 2026-05-09 04:27 | 52.86739 | -173.46933 | 18827 ft | 144 kts | 72° |
| 2026-05-09 04:27 | 52.87101 | -173.45385 | 18824 ft | 144 kts | 72° |
| 2026-05-09 04:27 | 52.87465 | -173.43832 | 18821 ft | 145 kts | 72° |
| 2026-05-09 04:27 | 52.87828 | -173.42279 | 18820 ft | 145 kts | 72° |
| 2026-05-09 04:28 | 52.88192 | -173.40722 | 18819 ft | 145 kts | 72° |
| 2026-05-09 04:28 | 52.88554 | -173.39165 | 18820 ft | 145 kts | 72° |
| 2026-05-09 04:28 | 52.88916 | -173.37610 | 18821 ft | 145 kts | 72° |
| 2026-05-09 04:28 | 52.89279 | -173.36052 | 18821 ft | 145 kts | 72° |
| 2026-05-09 04:29 | 52.89640 | -173.34495 | 18825 ft | 145 kts | 72° |
| 2026-05-09 04:29 | 52.90002 | -173.32943 | 18829 ft | 145 kts | 72° |
| 2026-05-09 04:29 | 52.90364 | -173.31389 | 18830 ft | 145 kts | 72° |
| 2026-05-09 04:29 | 52.90724 | -173.29845 | 18828 ft | 145 kts | 72° |
| 2026-05-09 04:30 | 52.91087 | -173.28280 | 18831 ft | 145 kts | 72° |
| 2026-05-09 04:30 | 52.91451 | -173.26710 | 18830 ft | 146 kts | 72° |
| 2026-05-09 04:30 | 52.91815 | -173.25142 | 18829 ft | 146 kts | 72° |
| 2026-05-09 04:30 | 52.92177 | -173.23575 | 18829 ft | 146 kts | 72° |
| 2026-05-09 04:31 | 52.92541 | -173.22006 | 18828 ft | 146 kts | 72° |
| 2026-05-09 04:31 | 52.92904 | -173.20436 | 18828 ft | 146 kts | 72° |
| 2026-05-09 04:31 | 52.93269 | -173.18857 | 18830 ft | 147 kts | 72° |
| 2026-05-09 04:31 | 52.93636 | -173.17267 | 18831 ft | 147 kts | 72° |
| 2026-05-09 04:32 | 52.94003 | -173.15677 | 18834 ft | 148 kts | 72° |
| 2026-05-09 04:32 | 52.94374 | -173.14076 | 18833 ft | 149 kts | 72° |
| 2026-05-09 04:32 | 52.94739 | -173.12483 | 18833 ft | 151 kts | 72° |
| 2026-05-09 04:32 | 52.95116 | -173.10849 | 18832 ft | 153 kts | 72° |
| 2026-05-09 04:33 | 52.95496 | -173.09200 | 18836 ft | 154 kts | 72° |
| 2026-05-09 04:33 | 52.95876 | -173.07542 | 18835 ft | 154 kts | 72° |
| 2026-05-09 04:33 | 52.96256 | -173.05893 | 18834 ft | 152 kts | 72° |
| 2026-05-09 04:33 | 52.96631 | -173.04257 | 18832 ft | 151 kts | 72° |
| 2026-05-09 04:34 | 52.96878 | -173.03181 | 18828 ft | 150 kts | 72° |
| 2026-05-09 04:34 | 52.97247 | -173.01570 | 18821 ft | 149 kts | 72° |
| 2026-05-09 04:34 | 52.97614 | -172.99969 | 18820 ft | 148 kts | 72° |
| 2026-05-09 04:34 | 52.98097 | -172.97855 | 18819 ft | 147 kts | 72° |
| 2026-05-09 04:35 | 52.98343 | -172.96784 | 18816 ft | 147 kts | 72° |
| 2026-05-09 04:35 | 52.98704 | -172.95202 | 18815 ft | 146 kts | 72° |
| 2026-05-09 04:35 | 52.99061 | -172.93643 | 18815 ft | 146 kts | 72° |
| 2026-05-09 04:35 | 52.99420 | -172.92067 | 18815 ft | 146 kts | 72° |
| 2026-05-09 04:36 | 52.99778 | -172.90496 | 18819 ft | 146 kts | 72° |
| 2026-05-09 04:36 | 53.00137 | -172.88923 | 18817 ft | 146 kts | 72° |
| 2026-05-09 04:36 | 53.00495 | -172.87350 | 18821 ft | 145 kts | 72° |
| 2026-05-09 04:36 | 53.00852 | -172.85777 | 18822 ft | 145 kts | 72° |
| 2026-05-09 04:37 | 53.01210 | -172.84205 | 18824 ft | 145 kts | 72° |
| 2026-05-09 04:37 | 53.01567 | -172.82634 | 18824 ft | 145 kts | 72° |
| 2026-05-09 04:37 | 53.01924 | -172.81062 | 18824 ft | 145 kts | 72° |
| 2026-05-09 04:37 | 53.02282 | -172.79487 | 18825 ft | 145 kts | 72° |
| 2026-05-09 04:38 | 53.02638 | -172.77915 | 18827 ft | 145 kts | 72° |
| 2026-05-09 04:38 | 53.02994 | -172.76345 | 18828 ft | 145 kts | 72° |
| 2026-05-09 04:38 | 53.03349 | -172.74775 | 18825 ft | 145 kts | 72° |
| 2026-05-09 04:38 | 53.03706 | -172.73197 | 18826 ft | 146 kts | 72° |
| 2026-05-09 04:39 | 53.04062 | -172.71623 | 18825 ft | 146 kts | 72° |
| 2026-05-09 04:39 | 53.04414 | -172.70065 | 18827 ft | 146 kts | 72° |
| 2026-05-09 04:39 | 53.04772 | -172.68479 | 18826 ft | 147 kts | 72° |
| 2026-05-09 04:39 | 53.05133 | -172.66879 | 18826 ft | 148 kts | 72° |
| 2026-05-09 04:40 | 53.05493 | -172.65279 | 18828 ft | 148 kts | 72° |
| 2026-05-09 04:40 | 53.05854 | -172.63675 | 18832 ft | 148 kts | 72° |
| 2026-05-09 04:40 | 53.06216 | -172.62070 | 18835 ft | 148 kts | 72° |
| 2026-05-09 04:40 | 53.06579 | -172.60457 | 18835 ft | 149 kts | 72° |
| 2026-05-09 04:41 | 53.06941 | -172.58844 | 18832 ft | 149 kts | 72° |
| 2026-05-09 04:41 | 53.07299 | -172.57245 | 18830 ft | 149 kts | 72° |
| 2026-05-09 04:41 | 53.07662 | -172.55630 | 18828 ft | 149 kts | 72° |
| 2026-05-09 04:41 | 53.08024 | -172.54017 | 18827 ft | 148 kts | 72° |
| 2026-05-09 04:42 | 53.08383 | -172.52412 | 18825 ft | 148 kts | 72° |
| 2026-05-09 04:42 | 53.08742 | -172.50812 | 18825 ft | 147 kts | 72° |
| 2026-05-09 04:42 | 53.09099 | -172.49209 | 18828 ft | 147 kts | 72° |
| 2026-05-09 04:42 | 53.09454 | -172.47622 | 18831 ft | 148 kts | 72° |
| 2026-05-09 04:43 | 53.09816 | -172.46003 | 18839 ft | 150 kts | 72° |
| 2026-05-09 04:43 | 53.10180 | -172.44376 | 18840 ft | 151 kts | 72° |
| 2026-05-09 04:43 | 53.10544 | -172.42734 | 18844 ft | 152 kts | 72° |
| 2026-05-09 04:43 | 53.10912 | -172.41087 | 18844 ft | 152 kts | 72° |
| 2026-05-09 04:44 | 53.11278 | -172.39438 | 18845 ft | 151 kts | 72° |
| 2026-05-09 04:44 | 53.11643 | -172.37795 | 18843 ft | 151 kts | 72° |
| 2026-05-09 04:44 | 53.12007 | -172.36160 | 18842 ft | 150 kts | 72° |
| 2026-05-09 04:44 | 53.12368 | -172.34534 | 18839 ft | 150 kts | 72° |
| 2026-05-09 04:45 | 53.12730 | -172.32908 | 18827 ft | 149 kts | 72° |
| 2026-05-09 04:45 | 53.13089 | -172.31286 | 18826 ft | 149 kts | 72° |
| 2026-05-09 04:45 | 53.13447 | -172.29670 | 18827 ft | 148 kts | 72° |
| 2026-05-09 04:45 | 53.13805 | -172.28054 | 18824 ft | 148 kts | 72° |
| 2026-05-09 04:46 | 53.14161 | -172.26446 | 18828 ft | 148 kts | 72° |
| 2026-05-09 04:46 | 53.14515 | -172.24841 | 18827 ft | 148 kts | 72° |
| 2026-05-09 04:46 | 53.14865 | -172.23259 | 18830 ft | 147 kts | 72° |
| 2026-05-09 04:46 | 53.15219 | -172.21655 | 18828 ft | 147 kts | 72° |
| 2026-05-09 04:47 | 53.15571 | -172.20057 | 18828 ft | 147 kts | 72° |
| 2026-05-09 04:47 | 53.15923 | -172.18463 | 18830 ft | 146 kts | 72° |
| 2026-05-09 04:47 | 53.16274 | -172.16867 | 18830 ft | 147 kts | 72° |
| 2026-05-09 04:47 | 53.16623 | -172.15274 | 18834 ft | 146 kts | 72° |
| 2026-05-09 04:48 | 53.16973 | -172.13682 | 18840 ft | 146 kts | 72° |
| 2026-05-09 04:48 | 53.17324 | -172.12089 | 18839 ft | 146 kts | 72° |
| 2026-05-09 04:48 | 53.17674 | -172.10493 | 18838 ft | 147 kts | 72° |
| 2026-05-09 04:48 | 53.18025 | -172.08895 | 18838 ft | 147 kts | 72° |
| 2026-05-09 04:49 | 53.18377 | -172.07290 | 18839 ft | 147 kts | 72° |
| 2026-05-09 04:49 | 53.18726 | -172.05690 | 18852 ft | 148 kts | 72° |
| 2026-05-09 04:49 | 53.19081 | -172.04072 | 18853 ft | 149 kts | 72° |
| 2026-05-09 04:49 | 53.19437 | -172.02443 | 18850 ft | 150 kts | 72° |
| 2026-05-09 04:50 | 53.19790 | -172.00833 | 18845 ft | 150 kts | 72° |
| 2026-05-09 04:50 | 53.20147 | -171.99195 | 18842 ft | 150 kts | 72° |
| 2026-05-09 04:50 | 53.20503 | -171.97564 | 18841 ft | 149 kts | 72° |
| 2026-05-09 04:50 | 53.20855 | -171.95946 | 18838 ft | 149 kts | 72° |
| 2026-05-09 04:51 | 53.21208 | -171.94325 | 18836 ft | 148 kts | 72° |
| 2026-05-09 04:51 | 53.21559 | -171.92709 | 18838 ft | 148 kts | 72° |
| 2026-05-09 04:51 | 53.21909 | -171.91098 | 18839 ft | 148 kts | 72° |
| 2026-05-09 04:51 | 53.22259 | -171.89487 | 18836 ft | 148 kts | 72° |
| 2026-05-09 04:52 | 53.22604 | -171.87900 | 18836 ft | 147 kts | 72° |
| 2026-05-09 04:52 | 53.22953 | -171.86294 | 18834 ft | 147 kts | 72° |
| 2026-05-09 04:52 | 53.23301 | -171.84691 | 18833 ft | 147 kts | 72° |
| 2026-05-09 04:52 | 53.23649 | -171.83083 | 18833 ft | 147 kts | 72° |
| 2026-05-09 04:53 | 53.23996 | -171.81481 | 18834 ft | 147 kts | 72° |
| 2026-05-09 04:53 | 53.24342 | -171.79878 | 18833 ft | 147 kts | 72° |
| 2026-05-09 04:53 | 53.24689 | -171.78275 | 18831 ft | 147 kts | 72° |
| 2026-05-09 04:53 | 53.25032 | -171.76689 | 18831 ft | 147 kts | 72° |
| 2026-05-09 04:54 | 53.25379 | -171.75081 | 18832 ft | 147 kts | 72° |
| 2026-05-09 04:54 | 53.25724 | -171.73473 | 18840 ft | 147 kts | 72° |
| 2026-05-09 04:54 | 53.26071 | -171.71864 | 18849 ft | 147 kts | 72° |
| 2026-05-09 04:54 | 53.26417 | -171.70255 | 18845 ft | 147 kts | 72° |
| 2026-05-09 04:55 | 53.26765 | -171.68640 | 18839 ft | 148 kts | 72° |
| 2026-05-09 04:55 | 53.27111 | -171.67024 | 18840 ft | 148 kts | 72° |
| 2026-05-09 04:55 | 53.27460 | -171.65408 | 18842 ft | 148 kts | 72° |
| 2026-05-09 04:55 | 53.27806 | -171.63794 | 18841 ft | 148 kts | 72° |
| 2026-05-09 04:56 | 53.28148 | -171.62197 | 18841 ft | 148 kts | 72° |
| 2026-05-09 04:56 | 53.28495 | -171.60579 | 18842 ft | 148 kts | 72° |
| 2026-05-09 04:56 | 53.28842 | -171.58961 | 18842 ft | 148 kts | 72° |
| 2026-05-09 04:56 | 53.29187 | -171.57343 | 18842 ft | 148 kts | 72° |
| 2026-05-09 04:57 | 53.29534 | -171.55724 | 18842 ft | 148 kts | 72° |
| 2026-05-09 04:57 | 53.29879 | -171.54105 | 18842 ft | 148 kts | 72° |
| 2026-05-09 04:57 | 53.30225 | -171.52485 | 18841 ft | 148 kts | 72° |
| 2026-05-09 04:57 | 53.30571 | -171.50861 | 18842 ft | 148 kts | 72° |
| 2026-05-09 04:58 | 53.30917 | -171.49241 | 18842 ft | 148 kts | 72° |
| 2026-05-09 04:58 | 53.31262 | -171.47619 | 18843 ft | 148 kts | 72° |
| 2026-05-09 04:58 | 53.31607 | -171.45998 | 18842 ft | 148 kts | 72° |
| 2026-05-09 04:58 | 53.31947 | -171.44398 | 18845 ft | 148 kts | 72° |
| 2026-05-09 04:59 | 53.32295 | -171.42759 | 18844 ft | 148 kts | 72° |
| 2026-05-09 04:59 | 53.32635 | -171.41153 | 18845 ft | 148 kts | 72° |
| 2026-05-09 04:59 | 53.32981 | -171.39525 | 18849 ft | 148 kts | 72° |
| 2026-05-09 04:59 | 53.33325 | -171.37898 | 18848 ft | 148 kts | 72° |
| 2026-05-09 05:00 | 53.33665 | -171.36293 | 18845 ft | 148 kts | 72° |
| 2026-05-09 05:00 | 53.34009 | -171.34667 | 18844 ft | 148 kts | 72° |
| 2026-05-09 05:00 | 53.34352 | -171.33045 | 18844 ft | 148 kts | 72° |
| 2026-05-09 05:00 | 53.34695 | -171.31419 | 18845 ft | 148 kts | 72° |
| 2026-05-09 05:01 | 53.35036 | -171.29798 | 18843 ft | 148 kts | 72° |
| 2026-05-09 05:01 | 53.35379 | -171.28175 | 18843 ft | 148 kts | 72° |
| 2026-05-09 05:01 | 53.35721 | -171.26552 | 18842 ft | 148 kts | 72° |
| 2026-05-09 05:01 | 53.36063 | -171.24929 | 18846 ft | 148 kts | 72° |
| 2026-05-09 05:02 | 53.36402 | -171.23309 | 18844 ft | 147 kts | 72° |
| 2026-05-09 05:02 | 53.36743 | -171.21688 | 18841 ft | 148 kts | 72° |
| 2026-05-09 05:02 | 53.37080 | -171.20083 | 18838 ft | 148 kts | 72° |
| 2026-05-09 05:02 | 53.37426 | -171.18434 | 18839 ft | 148 kts | 72° |
| 2026-05-09 05:03 | 53.37767 | -171.16804 | 18843 ft | 148 kts | 72° |
| 2026-05-09 05:03 | 53.38105 | -171.15194 | 18845 ft | 149 kts | 72° |
| 2026-05-09 05:03 | 53.38449 | -171.13553 | 18845 ft | 149 kts | 72° |
| 2026-05-09 05:03 | 53.38792 | -171.11917 | 18845 ft | 149 kts | 72° |
| 2026-05-09 05:04 | 53.39135 | -171.10277 | 18844 ft | 149 kts | 72° |
| 2026-05-09 05:04 | 53.39477 | -171.08637 | 18843 ft | 149 kts | 72° |
| 2026-05-09 05:04 | 53.39820 | -171.06991 | 18846 ft | 149 kts | 72° |
| 2026-05-09 05:04 | 53.40160 | -171.05355 | 18848 ft | 148 kts | 72° |
| 2026-05-09 05:05 | 53.40496 | -171.03741 | 18852 ft | 148 kts | 72° |
| 2026-05-09 05:05 | 53.40837 | -171.02106 | 18851 ft | 149 kts | 72° |
| 2026-05-09 05:05 | 53.41177 | -171.00473 | 18854 ft | 148 kts | 72° |
| 2026-05-09 05:05 | 53.41517 | -170.98835 | 18855 ft | 149 kts | 72° |
| 2026-05-09 05:06 | 53.41859 | -170.97188 | 18850 ft | 149 kts | 72° |
| 2026-05-09 05:06 | 53.42200 | -170.95544 | 18853 ft | 149 kts | 72° |
| 2026-05-09 05:06 | 53.42541 | -170.93900 | 18856 ft | 149 kts | 72° |
| 2026-05-09 05:06 | 53.42882 | -170.92251 | 18854 ft | 150 kts | 72° |
| 2026-05-09 05:07 | 53.43224 | -170.90601 | 18860 ft | 150 kts | 72° |
| 2026-05-09 05:07 | 53.43565 | -170.88951 | 18856 ft | 150 kts | 72° |
| 2026-05-09 05:07 | 53.43907 | -170.87296 | 18849 ft | 151 kts | 72° |
| 2026-05-09 05:07 | 53.44250 | -170.85633 | 18847 ft | 151 kts | 72° |
| 2026-05-09 05:08 | 53.44589 | -170.83988 | 18848 ft | 150 kts | 72° |
| 2026-05-09 05:08 | 53.44936 | -170.82307 | 18845 ft | 151 kts | 72° |
| 2026-05-09 05:08 | 53.45274 | -170.80662 | 18855 ft | 151 kts | 72° |
| 2026-05-09 05:08 | 53.45615 | -170.79004 | 18854 ft | 150 kts | 72° |
| 2026-05-09 05:09 | 53.45956 | -170.77345 | 18847 ft | 150 kts | 72° |
| 2026-05-09 05:09 | 53.46298 | -170.75680 | 18848 ft | 151 kts | 72° |
| 2026-05-09 05:09 | 53.46638 | -170.74019 | 18853 ft | 150 kts | 72° |
| 2026-05-09 05:09 | 53.46978 | -170.72365 | 18856 ft | 150 kts | 72° |
| 2026-05-09 05:10 | 53.47318 | -170.70708 | 18857 ft | 150 kts | 72° |
| 2026-05-09 05:10 | 53.47658 | -170.69046 | 18859 ft | 150 kts | 72° |
| 2026-05-09 05:10 | 53.47997 | -170.67386 | 18854 ft | 150 kts | 72° |
| 2026-05-09 05:10 | 53.48337 | -170.65722 | 18849 ft | 151 kts | 72° |
| 2026-05-09 05:11 | 53.48679 | -170.64049 | 18849 ft | 152 kts | 72° |
| 2026-05-09 05:11 | 53.49023 | -170.62368 | 18848 ft | 152 kts | 72° |
| 2026-05-09 05:11 | 53.49364 | -170.60685 | 18851 ft | 152 kts | 72° |
| 2026-05-09 05:11 | 53.49707 | -170.59002 | 18846 ft | 153 kts | 72° |
| 2026-05-09 05:12 | 53.50047 | -170.57330 | 18852 ft | 152 kts | 72° |
| 2026-05-09 05:12 | 53.50390 | -170.55645 | 18851 ft | 152 kts | 72° |
| 2026-05-09 05:12 | 53.50733 | -170.53957 | 18850 ft | 153 kts | 72° |
| 2026-05-09 05:12 | 53.51078 | -170.52262 | 18853 ft | 153 kts | 72° |
| 2026-05-09 05:13 | 53.51419 | -170.50577 | 18852 ft | 152 kts | 72° |
| 2026-05-09 05:13 | 53.51762 | -170.48885 | 18850 ft | 153 kts | 72° |
| 2026-05-09 05:13 | 53.52105 | -170.47193 | 18850 ft | 153 kts | 72° |
| 2026-05-09 05:13 | 53.52447 | -170.45503 | 18852 ft | 153 kts | 72° |
| 2026-05-09 05:14 | 53.52785 | -170.43830 | 18848 ft | 153 kts | 72° |
| 2026-05-09 05:14 | 53.53128 | -170.42133 | 18846 ft | 153 kts | 72° |
| 2026-05-09 05:14 | 53.53471 | -170.40432 | 18847 ft | 153 kts | 72° |
| 2026-05-09 05:14 | 53.53812 | -170.38740 | 18849 ft | 153 kts | 72° |
| 2026-05-09 05:15 | 53.54154 | -170.37041 | 18845 ft | 153 kts | 72° |
| 2026-05-09 05:15 | 53.54496 | -170.35342 | 18848 ft | 153 kts | 72° |
| 2026-05-09 05:15 | 53.54837 | -170.33647 | 18850 ft | 153 kts | 72° |
| 2026-05-09 05:15 | 53.55172 | -170.31974 | 18847 ft | 153 kts | 72° |
| 2026-05-09 05:16 | 53.55514 | -170.30275 | 18853 ft | 153 kts | 72° |
| 2026-05-09 05:16 | 53.55854 | -170.28579 | 18852 ft | 153 kts | 72° |
| 2026-05-09 05:16 | 53.56193 | -170.26887 | 18850 ft | 153 kts | 72° |
| 2026-05-09 05:16 | 53.56534 | -170.25183 | 18852 ft | 153 kts | 72° |
| 2026-05-09 05:17 | 53.56873 | -170.23487 | 18851 ft | 153 kts | 72° |
| 2026-05-09 05:17 | 53.57213 | -170.21788 | 18852 ft | 153 kts | 72° |
| 2026-05-09 05:17 | 53.57551 | -170.20091 | 18849 ft | 153 kts | 72° |
| 2026-05-09 05:17 | 53.57886 | -170.18414 | 18854 ft | 153 kts | 72° |
| 2026-05-09 05:18 | 53.58114 | -170.17271 | 18851 ft | 153 kts | 72° |
| 2026-05-09 05:18 | 53.58563 | -170.15018 | 18853 ft | 153 kts | 72° |
| 2026-05-09 05:18 | 53.58901 | -170.13317 | 18849 ft | 153 kts | 72° |
| 2026-05-09 05:18 | 53.59239 | -170.11623 | 18849 ft | 152 kts | 72° |
| 2026-05-09 05:19 | 53.59461 | -170.10499 | 18847 ft | 153 kts | 72° |
| 2026-05-09 05:19 | 53.59799 | -170.08801 | 18842 ft | 153 kts | 71° |
| 2026-05-09 05:19 | 53.60138 | -170.07089 | 18842 ft | 154 kts | 71° |
| 2026-05-09 05:19 | 53.60477 | -170.05378 | 18843 ft | 154 kts | 71° |
| 2026-05-09 05:20 | 53.60816 | -170.03665 | 18844 ft | 155 kts | 71° |
| 2026-05-09 05:20 | 53.61156 | -170.01945 | 18847 ft | 155 kts | 71° |
| 2026-05-09 05:20 | 53.61496 | -170.00227 | 18847 ft | 155 kts | 71° |
| 2026-05-09 05:20 | 53.61836 | -169.98505 | 18846 ft | 155 kts | 71° |
| 2026-05-09 05:21 | 53.62173 | -169.96801 | 18844 ft | 155 kts | 71° |
| 2026-05-09 05:21 | 53.62512 | -169.95076 | 18847 ft | 155 kts | 71° |
| 2026-05-09 05:21 | 53.62851 | -169.93353 | 18845 ft | 155 kts | 71° |
| 2026-05-09 05:21 | 53.63192 | -169.91627 | 18845 ft | 155 kts | 72° |
| 2026-05-09 05:22 | 53.63532 | -169.89893 | 18845 ft | 155 kts | 71° |
| 2026-05-09 05:22 | 53.63872 | -169.88163 | 18843 ft | 155 kts | 72° |
| 2026-05-09 05:22 | 53.64211 | -169.86435 | 18843 ft | 156 kts | 71° |
| 2026-05-09 05:22 | 53.64550 | -169.84704 | 18844 ft | 155 kts | 72° |
| 2026-05-09 05:23 | 53.64890 | -169.82973 | 18846 ft | 155 kts | 72° |
| 2026-05-09 05:23 | 53.65228 | -169.81242 | 18846 ft | 155 kts | 71° |
| 2026-05-09 05:23 | 53.65563 | -169.79531 | 18848 ft | 156 kts | 72° |
| 2026-05-09 05:23 | 53.65901 | -169.77799 | 18847 ft | 155 kts | 72° |
| 2026-05-09 05:24 | 53.66239 | -169.76068 | 18846 ft | 155 kts | 71° |
| 2026-05-09 05:24 | 53.66577 | -169.74336 | 18844 ft | 156 kts | 72° |
| 2026-05-09 05:24 | 53.66916 | -169.72598 | 18846 ft | 155 kts | 72° |
| 2026-05-09 05:24 | 53.67252 | -169.70866 | 18845 ft | 155 kts | 72° |
| 2026-05-09 05:25 | 53.67590 | -169.69132 | 18851 ft | 156 kts | 72° |
| 2026-05-09 05:25 | 53.67927 | -169.67398 | 18848 ft | 155 kts | 72° |
| 2026-05-09 05:25 | 53.68600 | -169.63930 | 18848 ft | 156 kts | 72° |
| 2026-05-09 05:26 | 53.68936 | -169.62195 | 18845 ft | 156 kts | 72° |
| 2026-05-09 05:26 | 53.69272 | -169.60462 | 18846 ft | 155 kts | 72° |
| 2026-05-09 05:26 | 53.69607 | -169.58728 | 18850 ft | 156 kts | 72° |
| 2026-05-09 05:26 | 53.69938 | -169.57014 | 18849 ft | 156 kts | 72° |
| 2026-05-09 05:27 | 53.70275 | -169.55272 | 18851 ft | 156 kts | 72° |
| 2026-05-09 05:27 | 53.70610 | -169.53533 | 18858 ft | 156 kts | 71° |
| 2026-05-09 05:27 | 53.70947 | -169.51783 | 18844 ft | 157 kts | 70° |
| 2026-05-09 05:27 | 53.71286 | -169.50024 | 18843 ft | 157 kts | 70° |
| 2026-05-09 05:28 | 53.71625 | -169.48266 | 18843 ft | 157 kts | 70° |
| 2026-05-09 05:28 | 53.71962 | -169.46510 | 18843 ft | 158 kts | 71° |
| 2026-05-09 05:28 | 53.72300 | -169.44747 | 18844 ft | 158 kts | 70° |
| 2026-05-09 05:28 | 53.72634 | -169.43010 | 18844 ft | 158 kts | 70° |
| 2026-05-09 05:29 | 53.72972 | -169.41247 | 18847 ft | 158 kts | 71° |
| 2026-05-09 05:29 | 53.73310 | -169.39479 | 18847 ft | 158 kts | 71° |
| 2026-05-09 05:29 | 53.73647 | -169.37715 | 18848 ft | 158 kts | 70° |
| 2026-05-09 05:29 | 53.73985 | -169.35949 | 18848 ft | 158 kts | 71° |
| 2026-05-09 05:30 | 53.74322 | -169.34182 | 18845 ft | 158 kts | 70° |
| 2026-05-09 05:30 | 53.74659 | -169.32415 | 18845 ft | 158 kts | 70° |
| 2026-05-09 05:30 | 53.74997 | -169.30647 | 18846 ft | 158 kts | 71° |
| 2026-05-09 05:30 | 53.75333 | -169.28880 | 18845 ft | 158 kts | 71° |
| 2026-05-09 05:31 | 53.75670 | -169.27110 | 18846 ft | 158 kts | 70° |
| 2026-05-09 05:31 | 53.76002 | -169.25364 | 18847 ft | 158 kts | 70° |
| 2026-05-09 05:31 | 53.76342 | -169.23573 | 18851 ft | 158 kts | 70° |
| 2026-05-09 05:31 | 53.76672 | -169.21829 | 18852 ft | 158 kts | 70° |
| 2026-05-09 05:32 | 53.77007 | -169.20063 | 18855 ft | 158 kts | 70° |
| 2026-05-09 05:32 | 53.77343 | -169.18296 | 18855 ft | 158 kts | 70° |
| 2026-05-09 05:32 | 53.77676 | -169.16529 | 18855 ft | 158 kts | 70° |
| 2026-05-09 05:32 | 53.78011 | -169.14760 | 18855 ft | 158 kts | 70° |
| 2026-05-09 05:33 | 53.78347 | -169.12980 | 18852 ft | 158 kts | 70° |
| 2026-05-09 05:33 | 53.78680 | -169.11210 | 18852 ft | 158 kts | 70° |
| 2026-05-09 05:33 | 53.79014 | -169.09436 | 18853 ft | 158 kts | 69° |
| 2026-05-09 05:33 | 53.79344 | -169.07691 | 18850 ft | 158 kts | 70° |
| 2026-05-09 05:34 | 53.79677 | -169.05919 | 18849 ft | 158 kts | 70° |
| 2026-05-09 05:34 | 53.80010 | -169.04148 | 18850 ft | 158 kts | 70° |
| 2026-05-09 05:34 | 53.80342 | -169.02377 | 18850 ft | 158 kts | 70° |
| 2026-05-09 05:34 | 53.80675 | -169.00608 | 18850 ft | 158 kts | 71° |
| 2026-05-09 05:35 | 53.81007 | -168.98831 | 18852 ft | 158 kts | 70° |
| 2026-05-09 05:35 | 53.81340 | -168.97055 | 18850 ft | 158 kts | 70° |
| 2026-05-09 05:35 | 53.81672 | -168.95281 | 18850 ft | 158 kts | 70° |
| 2026-05-09 05:35 | 53.82000 | -168.93524 | 18850 ft | 158 kts | 70° |
| 2026-05-09 05:36 | 53.82335 | -168.91727 | 18851 ft | 158 kts | 70° |
| 2026-05-09 05:36 | 53.82667 | -168.89954 | 18851 ft | 158 kts | 70° |
| 2026-05-09 05:36 | 53.82997 | -168.88180 | 18850 ft | 158 kts | 70° |
| 2026-05-09 05:36 | 53.83328 | -168.86399 | 18851 ft | 158 kts | 70° |
| 2026-05-09 05:37 | 53.83654 | -168.84650 | 18846 ft | 158 kts | 70° |
| 2026-05-09 05:37 | 53.83984 | -168.82874 | 18845 ft | 158 kts | 71° |
| 2026-05-09 05:37 | 53.84314 | -168.81095 | 18845 ft | 158 kts | 70° |
| 2026-05-09 05:37 | 53.84644 | -168.79316 | 18846 ft | 158 kts | 70° |
| 2026-05-09 05:38 | 53.84973 | -168.77540 | 18848 ft | 158 kts | 70° |
| 2026-05-09 05:38 | 53.85303 | -168.75757 | 18848 ft | 158 kts | 70° |
| 2026-05-09 05:38 | 53.85631 | -168.73981 | 18849 ft | 158 kts | 70° |
| 2026-05-09 05:38 | 53.85960 | -168.72203 | 18848 ft | 158 kts | 70° |
| 2026-05-09 05:39 | 53.86289 | -168.70425 | 18847 ft | 158 kts | 70° |
| 2026-05-09 05:39 | 53.86616 | -168.68649 | 18847 ft | 158 kts | 70° |
| 2026-05-09 05:39 | 53.86945 | -168.66872 | 18846 ft | 158 kts | 70° |
| 2026-05-09 05:39 | 53.87267 | -168.65118 | 18846 ft | 158 kts | 71° |
| 2026-05-09 05:40 | 53.87593 | -168.63341 | 18847 ft | 158 kts | 70° |
| 2026-05-09 05:40 | 53.87920 | -168.61563 | 18845 ft | 158 kts | 70° |
| 2026-05-09 05:40 | 53.88246 | -168.59785 | 18846 ft | 158 kts | 71° |
| 2026-05-09 05:40 | 53.88572 | -168.58005 | 18846 ft | 158 kts | 71° |
| 2026-05-09 05:41 | 53.88898 | -168.56225 | 18847 ft | 158 kts | 70° |
| 2026-05-09 05:41 | 53.89224 | -168.54447 | 18847 ft | 158 kts | 71° |
| 2026-05-09 05:41 | 53.89550 | -168.52666 | 18847 ft | 158 kts | 70° |
| 2026-05-09 05:41 | 53.89874 | -168.50887 | 18847 ft | 158 kts | 70° |
| 2026-05-09 05:42 | 53.90200 | -168.49108 | 18847 ft | 158 kts | 70° |
| 2026-05-09 05:42 | 53.90525 | -168.47324 | 18847 ft | 158 kts | 71° |
| 2026-05-09 05:42 | 53.90848 | -168.45544 | 18847 ft | 158 kts | 70° |
| 2026-05-09 05:42 | 53.91168 | -168.43789 | 18845 ft | 158 kts | 71° |
| 2026-05-09 05:43 | 53.91492 | -168.42007 | 18845 ft | 158 kts | 71° |
| 2026-05-09 05:43 | 53.91815 | -168.40225 | 18845 ft | 158 kts | 71° |
| 2026-05-09 05:43 | 53.92138 | -168.38444 | 18843 ft | 158 kts | 70° |
| 2026-05-09 05:43 | 53.92463 | -168.36657 | 18841 ft | 159 kts | 70° |
| 2026-05-09 05:44 | 53.92787 | -168.34865 | 18843 ft | 159 kts | 70° |
| 2026-05-09 05:44 | 53.93112 | -168.33070 | 18845 ft | 159 kts | 70° |
| 2026-05-09 05:44 | 53.93437 | -168.31270 | 18842 ft | 159 kts | 70° |
| 2026-05-09 05:44 | 53.93762 | -168.29471 | 18843 ft | 159 kts | 70° |
| 2026-05-09 05:45 | 53.94085 | -168.27673 | 18841 ft | 159 kts | 69° |
| 2026-05-09 05:45 | 53.94410 | -168.25873 | 18841 ft | 159 kts | 70° |
| 2026-05-09 05:45 | 53.94736 | -168.24065 | 18841 ft | 159 kts | 70° |
| 2026-05-09 05:45 | 53.95055 | -168.22287 | 18841 ft | 159 kts | 70° |
| 2026-05-09 05:46 | 53.95379 | -168.20484 | 18842 ft | 159 kts | 69° |
| 2026-05-09 05:46 | 53.95703 | -168.18683 | 18841 ft | 159 kts | 70° |
| 2026-05-09 05:46 | 53.96026 | -168.16875 | 18841 ft | 159 kts | 70° |
| 2026-05-09 05:46 | 53.96350 | -168.15068 | 18839 ft | 159 kts | 69° |
| 2026-05-09 05:47 | 53.96673 | -168.13264 | 18842 ft | 159 kts | 70° |
| 2026-05-09 05:47 | 53.96991 | -168.11484 | 18841 ft | 160 kts | 70° |
| 2026-05-09 05:47 | 53.97314 | -168.09674 | 18842 ft | 160 kts | 70° |
| 2026-05-09 05:47 | 53.97637 | -168.07868 | 18838 ft | 160 kts | 70° |
| 2026-05-09 05:48 | 53.97959 | -168.06059 | 18840 ft | 160 kts | 71° |
| 2026-05-09 05:48 | 53.98280 | -168.04253 | 18840 ft | 160 kts | 70° |
| 2026-05-09 05:48 | 53.98602 | -168.02447 | 18840 ft | 160 kts | 70° |
| 2026-05-09 05:48 | 53.98923 | -168.00644 | 18840 ft | 160 kts | 70° |
| 2026-05-09 05:49 | 53.99243 | -167.98834 | 18843 ft | 160 kts | 70° |
| 2026-05-09 05:49 | 53.99563 | -167.97029 | 18843 ft | 160 kts | 69° |
| 2026-05-09 05:49 | 53.99880 | -167.95245 | 18843 ft | 160 kts | 70° |
| 2026-05-09 05:49 | 54.00199 | -167.93440 | 18843 ft | 160 kts | 71° |
| 2026-05-09 05:50 | 54.00519 | -167.91629 | 18841 ft | 160 kts | 70° |
| 2026-05-09 05:50 | 54.00839 | -167.89819 | 18841 ft | 160 kts | 70° |
| 2026-05-09 05:50 | 54.01159 | -167.88008 | 18841 ft | 160 kts | 71° |
| 2026-05-09 05:50 | 54.01478 | -167.86192 | 18841 ft | 160 kts | 71° |
| 2026-05-09 05:51 | 54.01794 | -167.84402 | 18839 ft | 160 kts | 70° |
| 2026-05-09 05:51 | 54.02113 | -167.82592 | 18839 ft | 160 kts | 71° |
| 2026-05-09 05:51 | 54.02430 | -167.80783 | 18839 ft | 160 kts | 70° |
| 2026-05-09 05:51 | 54.02748 | -167.78970 | 18835 ft | 160 kts | 69° |
| 2026-05-09 05:52 | 54.03068 | -167.77151 | 18837 ft | 160 kts | 69° |
| 2026-05-09 05:52 | 54.03386 | -167.75331 | 18837 ft | 160 kts | 70° |
| 2026-05-09 05:52 | 54.03705 | -167.73504 | 18837 ft | 160 kts | 70° |
| 2026-05-09 05:52 | 54.04025 | -167.71684 | 18837 ft | 160 kts | 70° |
| 2026-05-09 05:53 | 54.04343 | -167.69862 | 18840 ft | 160 kts | 71° |
| 2026-05-09 05:53 | 54.04656 | -167.68064 | 18838 ft | 160 kts | 70° |
| 2026-05-09 05:53 | 54.04975 | -167.66241 | 18801 ft | 162 kts | 69° |
| 2026-05-09 05:53 | 54.05301 | -167.64385 | 18683 ft | 165 kts | 70° |
| 2026-05-09 05:54 | 54.05628 | -167.62500 | 18568 ft | 167 kts | 70° |
| 2026-05-09 05:54 | 54.05958 | -167.60594 | 18453 ft | 169 kts | 69° |
| 2026-05-09 05:54 | 54.06292 | -167.58672 | 18339 ft | 170 kts | 70° |
| 2026-05-09 05:54 | 54.06628 | -167.56726 | 18224 ft | 172 kts | 70° |
| 2026-05-09 05:55 | 54.06967 | -167.54771 | 18105 ft | 173 kts | 70° |
| 2026-05-09 05:55 | 54.07308 | -167.52800 | 17927 ft | 175 kts | 70° |
| 2026-05-09 05:55 | 54.07654 | -167.50809 | 17707 ft | 175 kts | 70° |
| 2026-05-09 05:55 | 54.07997 | -167.48817 | 17491 ft | 175 kts | 69° |
| 2026-05-09 05:56 | 54.08341 | -167.46826 | 17272 ft | 175 kts | 70° |
| 2026-05-09 05:56 | 54.08683 | -167.44837 | 17053 ft | 175 kts | 71° |
| 2026-05-09 05:56 | 54.09023 | -167.42849 | 16841 ft | 175 kts | 70° |
| 2026-05-09 05:56 | 54.09366 | -167.40858 | 16638 ft | 175 kts | 70° |
| 2026-05-09 05:57 | 54.09709 | -167.38863 | 16429 ft | 175 kts | 70° |
| 2026-05-09 05:57 | 54.10046 | -167.36891 | 16223 ft | 175 kts | 69° |
| 2026-05-09 05:57 | 54.10389 | -167.34893 | 16015 ft | 175 kts | 70° |
| 2026-05-09 05:57 | 54.10731 | -167.32892 | 15810 ft | 175 kts | 70° |
| 2026-05-09 05:58 | 54.11071 | -167.30897 | 15607 ft | 175 kts | 70° |
| 2026-05-09 05:58 | 54.11413 | -167.28899 | 15400 ft | 175 kts | 69° |
| 2026-05-09 05:58 | 54.11749 | -167.26930 | 15200 ft | 175 kts | 69° |
| 2026-05-09 05:58 | 54.12088 | -167.24938 | 15001 ft | 175 kts | 70° |
| 2026-05-09 05:59 | 54.12426 | -167.22942 | 14801 ft | 175 kts | 69° |
| 2026-05-09 05:59 | 54.12766 | -167.20950 | 14607 ft | 175 kts | 70° |
| 2026-05-09 05:59 | 54.13105 | -167.18951 | 14405 ft | 175 kts | 70° |
| 2026-05-09 05:59 | 54.13442 | -167.16958 | 14213 ft | 175 kts | 69° |
| 2026-05-09 06:00 | 54.13781 | -167.14965 | 14019 ft | 175 kts | 70° |
| 2026-05-09 06:00 | 54.14118 | -167.12971 | 13826 ft | 175 kts | 70° |
| 2026-05-09 06:00 | 54.14453 | -167.10980 | 13631 ft | 175 kts | 69° |
| 2026-05-09 06:00 | 54.14787 | -167.09010 | 13419 ft | 175 kts | 69° |
| 2026-05-09 06:01 | 54.15123 | -167.07022 | 13176 ft | 173 kts | 70° |
| 2026-05-09 06:01 | 54.15454 | -167.05054 | 12930 ft | 172 kts | 69° |
| 2026-05-09 06:01 | 54.15783 | -167.03100 | 12688 ft | 171 kts | 70° |
| 2026-05-09 06:01 | 54.16110 | -167.01151 | 12447 ft | 170 kts | 70° |
| 2026-05-09 06:02 | 54.16435 | -166.99211 | 12209 ft | 170 kts | 70° |
| 2026-05-09 06:02 | 54.16760 | -166.97269 | 11976 ft | 170 kts | 70° |
| 2026-05-09 06:02 | 54.17085 | -166.95337 | 11744 ft | 169 kts | 70° |
| 2026-05-09 06:02 | 54.17407 | -166.93405 | 11511 ft | 169 kts | 70° |
| 2026-05-09 06:03 | 54.17619 | -166.92132 | 11358 ft | 169 kts | 69° |
| 2026-05-09 06:03 | 54.17942 | -166.90205 | 11129 ft | 169 kts | 70° |
| 2026-05-09 06:03 | 54.18263 | -166.88279 | 10902 ft | 168 kts | 70° |
| 2026-05-09 06:03 | 54.18582 | -166.86357 | 10676 ft | 168 kts | 69° |
| 2026-05-09 06:04 | 54.18903 | -166.84437 | 10452 ft | 168 kts | 70° |
| 2026-05-09 06:04 | 54.19223 | -166.82515 | 10217 ft | 166 kts | 70° |
| 2026-05-09 06:04 | 54.19535 | -166.80640 | 9965 ft | 162 kts | 70° |
| 2026-05-09 06:04 | 54.19839 | -166.78802 | 9711 ft | 160 kts | 70° |
| 2026-05-09 06:05 | 54.20141 | -166.76982 | 9445 ft | 158 kts | 70° |
| 2026-05-09 06:05 | 54.20438 | -166.75183 | 9168 ft | 157 kts | 70° |
| 2026-05-09 06:05 | 54.20730 | -166.73408 | 8953 ft | 154 kts | 70° |
| 2026-05-09 06:05 | 54.21015 | -166.71686 | 8738 ft | 152 kts | 69° |
| 2026-05-09 06:06 | 54.21301 | -166.69957 | 8523 ft | 150 kts | 71° |
| 2026-05-09 06:06 | 54.21584 | -166.68238 | 8308 ft | 149 kts | 70° |
| 2026-05-09 06:06 | 54.21865 | -166.66534 | 8095 ft | 148 kts | 69° |
| 2026-05-09 06:06 | 54.22142 | -166.64848 | 7905 ft | 146 kts | 70° |
| 2026-05-09 06:07 | 54.22415 | -166.63183 | 7728 ft | 145 kts | 69° |
| 2026-05-09 06:07 | 54.22688 | -166.61527 | 7549 ft | 144 kts | 69° |
| 2026-05-09 06:07 | 54.22959 | -166.59873 | 7368 ft | 144 kts | 70° |
| 2026-05-09 06:07 | 54.22989 | -166.58155 | 7185 ft | 149 kts | 104° |
| 2026-05-09 06:08 | 54.22469 | -166.56640 | 7012 ft | 150 kts | 135° |
| 2026-05-09 06:08 | 54.21564 | -166.55803 | 6837 ft | 150 kts | 169° |
| 2026-05-09 06:08 | 54.20531 | -166.55866 | 6626 ft | 151 kts | 196° |
| 2026-05-09 06:08 | 54.19496 | -166.56243 | 6411 ft | 153 kts | 193° |
| 2026-05-09 06:09 | 54.18446 | -166.56590 | 6195 ft | 153 kts | 193° |
| 2026-05-09 06:09 | 54.17403 | -166.56936 | 5955 ft | 152 kts | 193° |
| 2026-05-09 06:09 | 54.16375 | -166.57283 | 5719 ft | 153 kts | 193° |
| 2026-05-09 06:09 | 54.15334 | -166.57635 | 5507 ft | 151 kts | 192° |
| 2026-05-09 06:10 | 54.14305 | -166.57981 | 5295 ft | 150 kts | 192° |
| 2026-05-09 06:10 | 54.13284 | -166.58325 | 5088 ft | 149 kts | 192° |
| 2026-05-09 06:10 | 54.12264 | -166.58669 | 4857 ft | 150 kts | 192° |
| 2026-05-09 06:10 | 54.11236 | -166.59015 | 4627 ft | 150 kts | 191° |
| 2026-05-09 06:11 | 54.10208 | -166.59347 | 4388 ft | 151 kts | 187° |
| 2026-05-09 06:11 | 54.09170 | -166.59205 | 4157 ft | 149 kts | 169° |
| 2026-05-09 06:11 | 54.08144 | -166.58967 | 3945 ft | 149 kts | 172° |
| 2026-05-09 06:11 | 54.07119 | -166.58752 | 3735 ft | 148 kts | 172° |
| 2026-05-09 06:12 | 54.06099 | -166.58535 | 3518 ft | 148 kts | 171° |
| 2026-05-09 06:12 | 54.05076 | -166.58315 | 3316 ft | 149 kts | 171° |
| 2026-05-09 06:12 | 54.04050 | -166.58093 | 3108 ft | 148 kts | 171° |
| 2026-05-09 06:12 | 54.03028 | -166.57873 | 2894 ft | 148 kts | 171° |
| 2026-05-09 06:13 | 54.02031 | -166.57660 | 2736 ft | 145 kts | 171° |
| 2026-05-09 06:13 | 54.01027 | -166.57443 | 2571 ft | 145 kts | 171° |
| 2026-05-09 06:13 | 54.00044 | -166.57233 | 2507 ft | 138 kts | 171° |
| 2026-05-09 06:13 | 53.99102 | -166.57031 | 2404 ft | 132 kts | 173° |
| 2026-05-09 06:14 | 53.98206 | -166.56839 | 2278 ft | 128 kts | 173° |
| 2026-05-09 06:14 | 53.97330 | -166.56653 | 2145 ft | 126 kts | 173° |
| 2026-05-09 06:14 | 53.96460 | -166.56466 | 2015 ft | 125 kts | 173° |
| 2026-05-09 06:14 | 53.95638 | -166.56289 | 2004 ft | 117 kts | 173° |
| 2026-05-09 06:15 | 53.94832 | -166.56174 | 1926 ft | 117 kts | 178° |
| 2026-05-09 06:15 | 53.93996 | -166.56165 | 1774 ft | 122 kts | 180° |
| 2026-05-09 06:15 | 53.93147 | -166.56157 | 1652 ft | 123 kts | 180° |
| 2026-05-09 06:15 | 53.92285 | -166.56125 | 1504 ft | 124 kts | 178° |
| 2026-05-09 06:16 | 53.91425 | -166.56044 | 1360 ft | 124 kts | 176° |
| 2026-05-09 06:16 | 53.90563 | -166.55915 | 1195 ft | 125 kts | 174° |
| 2026-05-09 06:16 | 53.89732 | -166.55713 | 1028 ft | 115 kts | 163° |
| 2026-05-09 06:16 | 53.89076 | -166.55043 | 859 ft | 109 kts | 137° |
| 2026-05-09 06:17 | 53.88512 | -166.54258 | 780 ft | 101 kts | 136° |
| 2026-05-09 06:17 | 53.87994 | -166.53487 | 682 ft | 100 kts | 134° |
| 2026-05-09 06:17 | 53.87780 | -166.52562 | 557 ft | 80 kts | 68° |
| 2026-05-09 06:17 | 53.88144 | -166.52134 | 471 ft | 67 kts | 350° |
| 2026-05-09 06:18 | 53.88589 | -166.52425 | 351 ft | 73 kts | 327° |
| 2026-05-09 06:18 | 53.88980 | -166.53007 | 217 ft | 76 kts | 315° |
| 2026-05-09 06:18 | 53.89356 | -166.53629 | 72 ft | 74 kts | 315° |
| 2026-05-09 06:18 | 53.89684 | -166.54172 | 12 ft | 53 kts | 316° |
| 2026-05-09 06:19 | 53.89867 | -166.54467 | 10 ft | 23 kts | 320° |
| 2026-05-09 06:19 | 53.89929 | -166.54584 | 9 ft | 6 kts | 194° |
| 2026-05-09 06:19 | 53.89889 | -166.54509 | 10 ft | 13 kts | 134° |
| 2026-05-09 06:19 | 53.89825 | -166.54400 | 9 ft | 14 kts | 136° |
| 2026-05-09 06:20 | 53.89760 | -166.54296 | 12 ft | 11 kts | 136° |
| 2026-05-09 06:20 | 53.89693 | -166.54184 | 12 ft | 18 kts | 135° |
| 2026-05-09 06:20 | 53.89604 | -166.54055 | 12 ft | 11 kts | 169° |
| 2026-05-09 06:20 | 53.89561 | -166.54117 | 11 ft | 10 kts | 271° |
| 2026-05-09 06:21 | 53.89558 | -166.54232 | 12 ft | 9 kts | 210° |
| 2026-05-09 06:21 | 53.89516 | -166.54214 | 13 ft | 1 kts | 96° |